TimeCDT,TemperatureF,Dew PointF,Humidity,Sea Level PressureIn,VisibilityMPH,Wind Direction,Wind SpeedMPH,Gust SpeedMPH,PrecipitationIn,Events,Conditions,WindDirDegrees,DateUTC
12:55 AM,72.0,66.9,84,29.93,10.0,South,10.4,-,0.00,,Partly Cloudy,170,2013-08-19 05:55:00
1:55 AM,71.1,66.0,84,29.91,10.0,South,13.8,-,0.00,,Clear,180,2013-08-19 06:55:00
2:55 AM,69.1,66.0,90,29.91,10.0,SSE,4.6,-,N/A,,Clear,160,2013-08-19 07:55:00
3:55 AM,66.0,64.9,96,29.89,7.0,SE,5.8,-,N/A,,Clear,140,2013-08-19 08:55:00
4:55 AM,66.0,64.9,96,29.88,8.0,SSE,9.2,-,N/A,,Clear,160,2013-08-19 09:55:00
5:55 AM,64.9,64.0,97,29.87,8.0,SSE,9.2,-,N/A,,Clear,160,2013-08-19 10:55:00
6:55 AM,64.9,63.0,93,29.87,6.0,SSE,8.1,-,N/A,,Clear,160,2013-08-19 11:55:00
7:55 AM,66.0,64.0,93,29.88,6.0,South,8.1,-,N/A,,Clear,170,2013-08-19 12:55:00
8:55 AM,69.1,64.9,87,29.88,8.0,South,4.6,-,N/A,,Clear,170,2013-08-19 13:55:00
9:55 AM,72.0,66.0,81,29.87,9.0,South,6.9,-,N/A,,Clear,190,2013-08-19 14:55:00
10:55 AM,75.9,66.0,71,29.87,10.0,Calm,Calm,-,N/A,,Clear,0,2013-08-19 15:55:00
11:55 AM,80.1,68.0,67,29.87,10.0,Variable,5.8,-,N/A,,Scattered Clouds,0,2013-08-19 16:55:00
12:55 PM,82.0,69.1,65,29.86,10.0,ESE,4.6,-,N/A,,Scattered Clouds,110,2013-08-19 17:55:00
1:55 PM,84.0,69.1,61,29.85,10.0,South,5.8,-,N/A,,Clear,190,2013-08-19 18:55:00
2:55 PM,86.0,70.0,59,29.84,10.0,Variable,3.5,-,N/A,,Clear,0,2013-08-19 19:55:00
3:55 PM,86.0,71.1,61,29.83,10.0,South,8.1,-,N/A,,Partly Cloudy,170,2013-08-19 20:55:00
4:55 PM,86.0,71.1,61,29.82,10.0,South,3.5,-,N/A,,Scattered Clouds,180,2013-08-19 21:55:00
5:55 PM,87.1,71.1,59,29.81,10.0,East,4.6,-,N/A,,Partly Cloudy,80,2013-08-19 22:55:00
6:55 PM,86.0,71.1,61,29.81,10.0,SE,3.5,-,N/A,,Clear,140,2013-08-19 23:55:00
7:55 PM,82.9,73.0,72,29.81,9.0,ESE,3.5,-,N/A,,Clear,110,2013-08-20 00:55:00
8:55 PM,78.1,73.0,84,29.82,9.0,ESE,3.5,-,N/A,,Clear,120,2013-08-20 01:55:00
9:55 PM,78.1,73.0,84,29.83,9.0,SE,3.5,-,N/A,,Clear,140,2013-08-20 02:55:00
10:55 PM,75.9,73.0,91,29.83,8.0,SE,3.5,-,N/A,,Clear,140,2013-08-20 03:55:00
11:55 PM,73.9,72.0,93,29.82,7.0,SSE,3.5,-,N/A,,Clear,150,2013-08-20 04:55:00